Terminal Aerodrome Forecast
Issued by NWS

Home | Current Version | Previous Version | Text Only | Print | Product List | Glossary On
Versions: 1 2 3 4 5 6 7 8 9 10 11 12
000
FTUS44 KJAN 231122
TAFHKS
TAF
KHKS 231122Z 2312/2412 25007KT P6SM BKN009 OVC025
     FM231700 26010KT P6SM BKN025
     FM240000 25004KT P6SM SCT025 BKN050
     FM240800 26005KT P6SM SCT010 BKN025=

USA.gov is the U.S. government's official web portal to all federal, state and local government web resources and services.